sensor_id;sensor_type;location;lat;lon;timestamp;P1;durP1;ratioP1;P2;durP2;ratioP2
21862;SDS011;11096;51.338;12.524;2022-09-01T00:01:55;1.30;;;0.75;;
21862;SDS011;11096;51.338;12.524;2022-09-01T00:04:22;3.67;;;1.13;;
21862;SDS011;11096;51.338;12.524;2022-09-01T00:06:53;1.23;;;0.85;;
21862;SDS011;11096;51.338;12.524;2022-09-01T00:09:19;2.13;;;0.80;;
21862;SDS011;11096;51.338;12.524;2022-09-01T00:11:48;1.38;;;0.60;;
21862;SDS011;11096;51.338;12.524;2022-09-01T00:14:14;1.15;;;1.05;;
21862;SDS011;11096;51.338;12.524;2022-09-01T00:16:40;0.73;;;0.70;;
21862;SDS011;11096;51.338;12.524;2022-09-01T00:19:05;1.80;;;1.00;;
21862;SDS011;11096;51.338;12.524;2022-09-01T00:21:39;1.40;;;0.70;;
21862;SDS011;11096;51.338;12.524;2022-09-01T00:24:07;1.08;;;0.77;;
21862;SDS011;11096;51.338;12.524;2022-09-01T00:26:34;3.88;;;0.88;;
21862;SDS011;11096;51.338;12.524;2022-09-01T00:28:59;0.90;;;0.70;;
21862;SDS011;11096;51.338;12.524;2022-09-01T00:31:25;1.90;;;1.08;;
21862;SDS011;11096;51.338;12.524;2022-09-01T00:33:51;1.33;;;0.90;;
21862;SDS011;11096;51.338;12.524;2022-09-01T00:36:17;2.67;;;0.93;;
21862;SDS011;11096;51.338;12.524;2022-09-01T00:38:42;1.52;;;0.82;;
21862;SDS011;11096;51.338;12.524;2022-09-01T00:41:09;0.63;;;0.60;;
21862;SDS011;11096;51.338;12.524;2022-09-01T00:43:37;1.05;;;0.77;;
21862;SDS011;11096;51.338;12.524;2022-09-01T00:46:09;1.17;;;0.70;;
21862;SDS011;11096;51.338;12.524;2022-09-01T00:48:37;1.05;;;0.77;;
21862;SDS011;11096;51.338;12.524;2022-09-01T00:51:03;1.10;;;1.00;;
21862;SDS011;11096;51.338;12.524;2022-09-01T00:53:30;2.45;;;0.70;;
21862;SDS011;11096;51.338;12.524;2022-09-01T00:55:56;3.13;;;0.80;;
21862;SDS011;11096;51.338;12.524;2022-09-01T00:58:22;1.17;;;0.98;;
21862;SDS011;11096;51.338;12.524;2022-09-01T01:00:48;1.00;;;0.73;;
21862;SDS011;11096;51.338;12.524;2022-09-01T01:03:16;2.65;;;1.00;;
21862;SDS011;11096;51.338;12.524;2022-09-01T01:05:43;1.10;;;0.90;;
21862;SDS011;11096;51.338;12.524;2022-09-01T01:08:18;1.58;;;0.80;;
21862;SDS011;11096;51.338;12.524;2022-09-01T01:10:55;4.93;;;3.00;;
21862;SDS011;11096;51.338;12.524;2022-09-01T01:13:20;5.60;;;3.70;;
21862;SDS011;11096;51.338;12.524;2022-09-01T01:15:50;1.75;;;1.52;;
21862;SDS011;11096;51.338;12.524;2022-09-01T01:18:15;3.42;;;1.17;;
21862;SDS011;11096;51.338;12.524;2022-09-01T01:20:41;1.85;;;1.02;;
21862;SDS011;11096;51.338;12.524;2022-09-01T01:26:09;3.05;;;1.00;;
21862;SDS011;11096;51.338;12.524;2022-09-01T01:28:39;1.95;;;0.98;;
21862;SDS011;11096;51.338;12.524;2022-09-01T01:31:07;2.17;;;1.15;;
21862;SDS011;11096;51.338;12.524;2022-09-01T01:33:46;0.82;;;0.82;;
21862;SDS011;11096;51.338;12.524;2022-09-01T01:36:15;1.80;;;1.27;;
21862;SDS011;11096;51.338;12.524;2022-09-01T01:38:46;1.27;;;0.93;;
21862;SDS011;11096;51.338;12.524;2022-09-01T01:41:13;2.70;;;1.23;;
21862;SDS011;11096;51.338;12.524;2022-09-01T01:43:40;2.47;;;0.90;;
21862;SDS011;11096;51.338;12.524;2022-09-01T01:46:07;1.73;;;1.35;;
21862;SDS011;11096;51.338;12.524;2022-09-01T01:48:35;1.08;;;0.98;;
21862;SDS011;11096;51.338;12.524;2022-09-01T01:51:03;3.13;;;1.60;;
21862;SDS011;11096;51.338;12.524;2022-09-01T01:53:30;2.20;;;1.13;;
21862;SDS011;11096;51.338;12.524;2022-09-01T01:55:56;1.65;;;1.02;;
21862;SDS011;11096;51.338;12.524;2022-09-01T01:58:24;1.55;;;0.93;;
21862;SDS011;11096;51.338;12.524;2022-09-01T02:00:51;1.58;;;1.23;;
21862;SDS011;11096;51.338;12.524;2022-09-01T02:03:19;1.23;;;1.00;;
21862;SDS011;11096;51.338;12.524;2022-09-01T02:05:47;2.72;;;1.00;;
21862;SDS011;11096;51.338;12.524;2022-09-01T02:08:15;2.30;;;0.95;;
21862;SDS011;11096;51.338;12.524;2022-09-01T02:10:45;2.08;;;0.90;;
21862;SDS011;11096;51.338;12.524;2022-09-01T02:13:13;1.90;;;1.27;;
21862;SDS011;11096;51.338;12.524;2022-09-01T02:15:47;2.20;;;0.90;;
21862;SDS011;11096;51.338;12.524;2022-09-01T02:18:24;2.05;;;1.10;;
21862;SDS011;11096;51.338;12.524;2022-09-01T02:20:58;2.28;;;1.40;;
21862;SDS011;11096;51.338;12.524;2022-09-01T02:23:24;3.85;;;0.82;;
21862;SDS011;11096;51.338;12.524;2022-09-01T02:25:51;2.58;;;1.25;;
21862;SDS011;11096;51.338;12.524;2022-09-01T02:28:19;1.90;;;0.90;;
21862;SDS011;11096;51.338;12.524;2022-09-01T02:30:47;1.60;;;1.13;;
21862;SDS011;11096;51.338;12.524;2022-09-01T02:33:15;1.75;;;1.40;;
21862;SDS011;11096;51.338;12.524;2022-09-01T02:35:45;2.65;;;1.13;;
21862;SDS011;11096;51.338;12.524;2022-09-01T02:38:16;2.15;;;1.10;;
21862;SDS011;11096;51.338;12.524;2022-09-01T02:40:44;1.30;;;1.00;;
21862;SDS011;11096;51.338;12.524;2022-09-01T02:43:11;2.00;;;0.98;;
21862;SDS011;11096;51.338;12.524;2022-09-01T02:45:37;1.27;;;1.10;;
21862;SDS011;11096;51.338;12.524;2022-09-01T02:48:04;1.08;;;0.85;;
21862;SDS011;11096;51.338;12.524;2022-09-01T02:50:33;1.92;;;1.05;;
21862;SDS011;11096;51.338;12.524;2022-09-01T02:53:00;0.75;;;0.73;;
21862;SDS011;11096;51.338;12.524;2022-09-01T02:55:25;2.38;;;1.20;;
21862;SDS011;11096;51.338;12.524;2022-09-01T02:57:51;1.17;;;0.88;;
21862;SDS011;11096;51.338;12.524;2022-09-01T03:00:21;3.13;;;1.20;;
21862;SDS011;11096;51.338;12.524;2022-09-01T03:02:53;2.80;;;1.73;;
21862;SDS011;11096;51.338;12.524;2022-09-01T03:05:23;1.92;;;1.35;;
21862;SDS011;11096;51.338;12.524;2022-09-01T03:07:53;2.30;;;1.27;;
21862;SDS011;11096;51.338;12.524;2022-09-01T03:10:34;1.10;;;1.00;;
21862;SDS011;11096;51.338;12.524;2022-09-01T03:13:04;2.47;;;1.13;;
21862;SDS011;11096;51.338;12.524;2022-09-01T03:15:32;1.00;;;0.90;;
21862;SDS011;11096;51.338;12.524;2022-09-01T03:18:00;2.90;;;1.50;;
21862;SDS011;11096;51.338;12.524;2022-09-01T03:20:27;3.22;;;1.45;;
21862;SDS011;11096;51.338;12.524;2022-09-01T03:22:58;1.73;;;1.30;;
21862;SDS011;11096;51.338;12.524;2022-09-01T03:25:29;1.35;;;1.05;;
21862;SDS011;11096;51.338;12.524;2022-09-01T03:27:55;2.42;;;1.27;;
21862;SDS011;11096;51.338;12.524;2022-09-01T03:30:23;1.30;;;1.20;;
21862;SDS011;11096;51.338;12.524;2022-09-01T03:32:50;3.13;;;1.40;;
21862;SDS011;11096;51.338;12.524;2022-09-01T03:35:16;2.42;;;1.20;;
21862;SDS011;11096;51.338;12.524;2022-09-01T03:37:41;2.70;;;1.30;;
21862;SDS011;11096;51.338;12.524;2022-09-01T03:40:08;1.60;;;1.10;;
21862;SDS011;11096;51.338;12.524;2022-09-01T03:42:35;2.00;;;1.30;;
21862;SDS011;11096;51.338;12.524;2022-09-01T03:45:02;0.95;;;0.85;;
21862;SDS011;11096;51.338;12.524;2022-09-01T03:47:33;1.45;;;1.25;;
21862;SDS011;11096;51.338;12.524;2022-09-01T03:50:04;1.55;;;1.45;;
21862;SDS011;11096;51.338;12.524;2022-09-01T03:52:37;5.43;;;1.77;;
21862;SDS011;11096;51.338;12.524;2022-09-01T03:55:05;1.85;;;1.10;;
21862;SDS011;11096;51.338;12.524;2022-09-01T03:57:30;1.30;;;1.20;;
21862;SDS011;11096;51.338;12.524;2022-09-01T03:59:56;2.03;;;1.30;;
21862;SDS011;11096;51.338;12.524;2022-09-01T04:02:21;2.10;;;1.38;;
21862;SDS011;11096;51.338;12.524;2022-09-01T04:04:47;3.78;;;1.60;;
21862;SDS011;11096;51.338;12.524;2022-09-01T04:07:12;2.47;;;1.40;;
21862;SDS011;11096;51.338;12.524;2022-09-01T04:09:37;2.40;;;1.40;;
21862;SDS011;11096;51.338;12.524;2022-09-01T04:12:04;2.85;;;1.35;;
21862;SDS011;11096;51.338;12.524;2022-09-01T04:14:33;2.45;;;1.58;;
21862;SDS011;11096;51.338;12.524;2022-09-01T04:16:58;2.17;;;1.60;;
21862;SDS011;11096;51.338;12.524;2022-09-01T04:19:42;2.50;;;1.17;;
21862;SDS011;11096;51.338;12.524;2022-09-01T04:22:08;3.67;;;1.60;;
21862;SDS011;11096;51.338;12.524;2022-09-01T04:24:37;2.17;;;1.33;;
21862;SDS011;11096;51.338;12.524;2022-09-01T04:27:06;2.47;;;1.23;;
21862;SDS011;11096;51.338;12.524;2022-09-01T04:29:34;4.60;;;1.42;;
21862;SDS011;11096;51.338;12.524;2022-09-01T04:32:04;2.65;;;1.05;;
21862;SDS011;11096;51.338;12.524;2022-09-01T04:34:32;1.70;;;1.10;;
21862;SDS011;11096;51.338;12.524;2022-09-01T04:37:05;2.58;;;1.17;;
21862;SDS011;11096;51.338;12.524;2022-09-01T04:39:32;3.20;;;1.40;;
21862;SDS011;11096;51.338;12.524;2022-09-01T04:41:57;2.72;;;1.10;;
21862;SDS011;11096;51.338;12.524;2022-09-01T04:44:22;1.65;;;1.27;;
21862;SDS011;11096;51.338;12.524;2022-09-01T04:46:50;1.30;;;0.90;;
21862;SDS011;11096;51.338;12.524;2022-09-01T04:49:16;1.55;;;1.10;;
21862;SDS011;11096;51.338;12.524;2022-09-01T04:51:49;1.88;;;1.10;;
21862;SDS011;11096;51.338;12.524;2022-09-01T04:54:16;2.05;;;1.00;;
21862;SDS011;11096;51.338;12.524;2022-09-01T04:56:44;2.05;;;1.38;;
21862;SDS011;11096;51.338;12.524;2022-09-01T04:59:13;2.70;;;1.30;;
21862;SDS011;11096;51.338;12.524;2022-09-01T05:01:39;2.20;;;1.30;;
21862;SDS011;11096;51.338;12.524;2022-09-01T05:04:09;0.93;;;0.90;;
21862;SDS011;11096;51.338;12.524;2022-09-01T05:06:41;2.17;;;1.30;;
21862;SDS011;11096;51.338;12.524;2022-09-01T05:09:11;1.83;;;1.10;;
21862;SDS011;11096;51.338;12.524;2022-09-01T05:11:38;3.47;;;1.23;;
21862;SDS011;11096;51.338;12.524;2022-09-01T05:14:05;2.30;;;1.30;;
21862;SDS011;11096;51.338;12.524;2022-09-01T05:16:31;1.67;;;1.10;;
21862;SDS011;11096;51.338;12.524;2022-09-01T05:18:57;1.40;;;1.10;;
21862;SDS011;11096;51.338;12.524;2022-09-01T05:21:23;4.93;;;1.10;;
21862;SDS011;11096;51.338;12.524;2022-09-01T05:23:52;2.28;;;1.20;;
21862;SDS011;11096;51.338;12.524;2022-09-01T05:26:19;2.92;;;1.02;;
21862;SDS011;11096;51.338;12.524;2022-09-01T05:28:48;2.03;;;1.25;;
21862;SDS011;11096;51.338;12.524;2022-09-01T05:31:18;1.63;;;1.02;;
21862;SDS011;11096;51.338;12.524;2022-09-01T05:33:44;3.25;;;1.10;;
21862;SDS011;11096;51.338;12.524;2022-09-01T05:36:12;1.98;;;0.98;;
21862;SDS011;11096;51.338;12.524;2022-09-01T05:38:39;1.42;;;1.08;;
21862;SDS011;11096;51.338;12.524;2022-09-01T05:41:07;1.42;;;1.00;;
21862;SDS011;11096;51.338;12.524;2022-09-01T05:43:35;1.50;;;1.00;;
21862;SDS011;11096;51.338;12.524;2022-09-01T05:46:01;2.28;;;1.10;;
21862;SDS011;11096;51.338;12.524;2022-09-01T05:48:30;2.97;;;1.73;;
21862;SDS011;11096;51.338;12.524;2022-09-01T05:50:59;3.28;;;1.80;;
21862;SDS011;11096;51.338;12.524;2022-09-01T05:53:25;3.08;;;1.23;;
21862;SDS011;11096;51.338;12.524;2022-09-01T05:55:52;1.65;;;0.90;;
21862;SDS011;11096;51.338;12.524;2022-09-01T05:58:21;1.45;;;0.80;;
21862;SDS011;11096;51.338;12.524;2022-09-01T06:00:49;1.17;;;0.80;;
21862;SDS011;11096;51.338;12.524;2022-09-01T06:03:16;2.05;;;1.13;;
21862;SDS011;11096;51.338;12.524;2022-09-01T06:05:42;1.52;;;1.05;;
21862;SDS011;11096;51.338;12.524;2022-09-01T06:08:12;2.28;;;1.17;;
21862;SDS011;11096;51.338;12.524;2022-09-01T06:10:39;1.05;;;0.88;;
21862;SDS011;11096;51.338;12.524;2022-09-01T06:13:09;4.00;;;1.02;;
21862;SDS011;11096;51.338;12.524;2022-09-01T06:15:36;1.65;;;1.20;;
21862;SDS011;11096;51.338;12.524;2022-09-01T06:18:05;1.73;;;1.10;;
21862;SDS011;11096;51.338;12.524;2022-09-01T06:20:33;1.80;;;0.93;;
21862;SDS011;11096;51.338;12.524;2022-09-01T06:23:02;1.92;;;1.13;;
21862;SDS011;11096;51.338;12.524;2022-09-01T06:25:27;2.30;;;0.90;;
21862;SDS011;11096;51.338;12.524;2022-09-01T06:27:54;1.52;;;0.90;;
21862;SDS011;11096;51.338;12.524;2022-09-01T06:30:21;1.33;;;0.90;;
21862;SDS011;11096;51.338;12.524;2022-09-01T06:32:50;2.90;;;2.03;;
21862;SDS011;11096;51.338;12.524;2022-09-01T06:35:18;3.10;;;1.15;;
21862;SDS011;11096;51.338;12.524;2022-09-01T06:37:44;2.03;;;1.40;;
21862;SDS011;11096;51.338;12.524;2022-09-01T06:40:11;2.65;;;0.73;;
21862;SDS011;11096;51.338;12.524;2022-09-01T06:42:42;1.30;;;0.90;;
21862;SDS011;11096;51.338;12.524;2022-09-01T06:45:11;4.63;;;1.25;;
21862;SDS011;11096;51.338;12.524;2022-09-01T06:47:37;1.92;;;1.17;;
21862;SDS011;11096;51.338;12.524;2022-09-01T06:50:03;2.17;;;1.02;;
21862;SDS011;11096;51.338;12.524;2022-09-01T06:52:32;2.22;;;1.10;;
21862;SDS011;11096;51.338;12.524;2022-09-01T06:54:58;2.10;;;0.98;;
21862;SDS011;11096;51.338;12.524;2022-09-01T06:57:23;4.72;;;1.05;;
21862;SDS011;11096;51.338;12.524;2022-09-01T06:59:51;1.30;;;0.88;;
21862;SDS011;11096;51.338;12.524;2022-09-01T07:02:18;2.38;;;1.00;;
21862;SDS011;11096;51.338;12.524;2022-09-01T07:04:43;0.93;;;0.90;;
21862;SDS011;11096;51.338;12.524;2022-09-01T07:07:09;3.05;;;1.05;;
21862;SDS011;11096;51.338;12.524;2022-09-01T07:09:37;2.33;;;1.30;;
21862;SDS011;11096;51.338;12.524;2022-09-01T07:12:06;3.05;;;1.20;;
21862;SDS011;11096;51.338;12.524;2022-09-01T07:14:31;3.10;;;1.10;;
21862;SDS011;11096;51.338;12.524;2022-09-01T07:16:57;1.85;;;0.90;;
21862;SDS011;11096;51.338;12.524;2022-09-01T07:19:23;1.90;;;0.82;;
21862;SDS011;11096;51.338;12.524;2022-09-01T07:21:50;5.90;;;1.58;;
21862;SDS011;11096;51.338;12.524;2022-09-01T07:24:16;2.90;;;1.33;;
21862;SDS011;11096;51.338;12.524;2022-09-01T07:26:44;1.85;;;1.10;;
21862;SDS011;11096;51.338;12.524;2022-09-01T07:29:13;1.65;;;1.10;;
21862;SDS011;11096;51.338;12.524;2022-09-01T07:31:40;1.90;;;1.17;;
21862;SDS011;11096;51.338;12.524;2022-09-01T07:34:08;2.53;;;1.40;;
21862;SDS011;11096;51.338;12.524;2022-09-01T07:36:38;3.05;;;1.20;;
21862;SDS011;11096;51.338;12.524;2022-09-01T07:39:05;1.95;;;1.23;;
21862;SDS011;11096;51.338;12.524;2022-09-01T07:41:31;3.63;;;1.60;;
21862;SDS011;11096;51.338;12.524;2022-09-01T07:43:59;3.17;;;1.30;;
21862;SDS011;11096;51.338;12.524;2022-09-01T07:46:27;9.50;;;1.58;;
21862;SDS011;11096;51.338;12.524;2022-09-01T07:48:53;2.03;;;1.15;;
21862;SDS011;11096;51.338;12.524;2022-09-01T07:51:20;2.65;;;1.10;;
21862;SDS011;11096;51.338;12.524;2022-09-01T07:53:47;2.70;;;1.15;;
21862;SDS011;11096;51.338;12.524;2022-09-01T07:56:14;1.50;;;0.95;;
21862;SDS011;11096;51.338;12.524;2022-09-01T07:58:42;2.15;;;0.95;;
21862;SDS011;11096;51.338;12.524;2022-09-01T08:01:09;1.50;;;1.17;;
21862;SDS011;11096;51.338;12.524;2022-09-01T08:03:38;1.55;;;1.00;;
21862;SDS011;11096;51.338;12.524;2022-09-01T08:06:09;1.25;;;0.90;;
21862;SDS011;11096;51.338;12.524;2022-09-01T08:08:36;2.75;;;1.08;;
21862;SDS011;11096;51.338;12.524;2022-09-01T08:11:03;2.33;;;1.05;;
21862;SDS011;11096;51.338;12.524;2022-09-01T08:13:29;1.27;;;0.95;;
21862;SDS011;11096;51.338;12.524;2022-09-01T08:15:54;2.33;;;0.80;;
21862;SDS011;11096;51.338;12.524;2022-09-01T08:18:20;1.33;;;0.90;;
21862;SDS011;11096;51.338;12.524;2022-09-01T08:20:45;1.67;;;0.80;;
21862;SDS011;11096;51.338;12.524;2022-09-01T08:23:12;1.55;;;0.85;;
21862;SDS011;11096;51.338;12.524;2022-09-01T08:25:42;1.70;;;0.90;;
21862;SDS011;11096;51.338;12.524;2022-09-01T08:28:08;2.78;;;0.90;;
21862;SDS011;11096;51.338;12.524;2022-09-01T08:30:34;1.63;;;1.00;;
21862;SDS011;11096;51.338;12.524;2022-09-01T08:33:01;1.92;;;0.80;;
21862;SDS011;11096;51.338;12.524;2022-09-01T08:35:27;1.85;;;0.70;;
21862;SDS011;11096;51.338;12.524;2022-09-01T08:37:56;2.92;;;1.00;;
21862;SDS011;11096;51.338;12.524;2022-09-01T08:40:22;3.00;;;0.77;;
21862;SDS011;11096;51.338;12.524;2022-09-01T08:42:52;2.20;;;0.90;;
21862;SDS011;11096;51.338;12.524;2022-09-01T08:48:11;1.88;;;0.85;;
21862;SDS011;11096;51.338;12.524;2022-09-01T08:50:42;4.72;;;1.00;;
21862;SDS011;11096;51.338;12.524;2022-09-01T08:53:18;2.03;;;0.95;;
21862;SDS011;11096;51.338;12.524;2022-09-01T08:55:50;1.70;;;0.93;;
21862;SDS011;11096;51.338;12.524;2022-09-01T08:58:20;1.73;;;0.80;;
21862;SDS011;11096;51.338;12.524;2022-09-01T09:00:49;2.97;;;0.80;;
21862;SDS011;11096;51.338;12.524;2022-09-01T09:16:48;1.58;;;0.80;;
21862;SDS011;11096;51.338;12.524;2022-09-01T09:19:16;0.98;;;0.80;;
21862;SDS011;11096;51.338;12.524;2022-09-01T09:22:04;2.53;;;1.30;;
21862;SDS011;11096;51.338;12.524;2022-09-01T09:29:54;2.67;;;1.10;;
21862;SDS011;11096;51.338;12.524;2022-09-01T09:38:13;3.03;;;0.88;;
21862;SDS011;11096;51.338;12.524;2022-09-01T09:41:06;2.58;;;0.90;;
21862;SDS011;11096;51.338;12.524;2022-09-01T09:43:45;2.20;;;0.60;;
21862;SDS011;11096;51.338;12.524;2022-09-01T09:51:48;2.03;;;0.70;;
21862;SDS011;11096;51.338;12.524;2022-09-01T09:57:08;2.75;;;1.13;;
21862;SDS011;11096;51.338;12.524;2022-09-01T10:04:45;1.10;;;0.52;;
21862;SDS011;11096;51.338;12.524;2022-09-01T10:10:03;2.08;;;0.55;;
21862;SDS011;11096;51.338;12.524;2022-09-01T10:12:31;1.88;;;0.45;;
21862;SDS011;11096;51.338;12.524;2022-09-01T10:15:07;2.20;;;0.30;;
21862;SDS011;11096;51.338;12.524;2022-09-01T10:17:35;1.30;;;0.30;;
21862;SDS011;11096;51.338;12.524;2022-09-01T10:22:36;1.48;;;0.22;;
21862;SDS011;11096;51.338;12.524;2022-09-01T10:25:06;4.03;;;2.40;;
21862;SDS011;11096;51.338;12.524;2022-09-01T10:27:36;2.53;;;1.27;;
21862;SDS011;11096;51.338;12.524;2022-09-01T10:32:37;1.40;;;0.30;;
21862;SDS011;11096;51.338;12.524;2022-09-01T10:35:16;0.70;;;0.30;;
21862;SDS011;11096;51.338;12.524;2022-09-01T10:37:48;0.25;;;0.20;;
21862;SDS011;11096;51.338;12.524;2022-09-01T10:40:19;1.45;;;0.35;;
21862;SDS011;11096;51.338;12.524;2022-09-01T10:42:45;0.75;;;0.17;;
21862;SDS011;11096;51.338;12.524;2022-09-01T10:47:55;1.20;;;0.30;;
21862;SDS011;11096;51.338;12.524;2022-09-01T10:50:41;0.77;;;0.30;;
21862;SDS011;11096;51.338;12.524;2022-09-01T10:53:07;0.50;;;0.20;;
21862;SDS011;11096;51.338;12.524;2022-09-01T11:00:52;1.23;;;0.30;;
21862;SDS011;11096;51.338;12.524;2022-09-01T11:10:54;1.63;;;0.17;;
21862;SDS011;11096;51.338;12.524;2022-09-01T11:18:55;1.00;;;0.10;;
21862;SDS011;11096;51.338;12.524;2022-09-01T11:30:15;0.57;;;0.17;;
21862;SDS011;11096;51.338;12.524;2022-09-01T11:32:43;0.30;;;0.20;;
21862;SDS011;11096;51.338;12.524;2022-09-01T11:35:14;0.88;;;0.30;;
21862;SDS011;11096;51.338;12.524;2022-09-01T11:37:49;0.55;;;0.10;;
21862;SDS011;11096;51.338;12.524;2022-09-01T11:40:23;0.20;;;0.10;;
21862;SDS011;11096;51.338;12.524;2022-09-01T11:42:51;0.90;;;0.20;;
21862;SDS011;11096;51.338;12.524;2022-09-01T11:45:19;0.30;;;0.10;;
21862;SDS011;11096;51.338;12.524;2022-09-01T11:47:49;0.50;;;0.20;;
21862;SDS011;11096;51.338;12.524;2022-09-01T11:50:27;0.35;;;0.20;;
21862;SDS011;11096;51.338;12.524;2022-09-01T11:58:11;3.10;;;0.30;;
21862;SDS011;11096;51.338;12.524;2022-09-01T12:00:39;0.50;;;0.25;;
21862;SDS011;11096;51.338;12.524;2022-09-01T12:03:19;0.30;;;0.20;;
21862;SDS011;11096;51.338;12.524;2022-09-01T12:05:47;0.55;;;0.30;;
21862;SDS011;11096;51.338;12.524;2022-09-01T12:08:23;3.20;;;0.40;;
21862;SDS011;11096;51.338;12.524;2022-09-01T12:10:59;1.95;;;0.50;;
21862;SDS011;11096;51.338;12.524;2022-09-01T12:13:29;0.80;;;0.30;;
21862;SDS011;11096;51.338;12.524;2022-09-01T12:15:55;0.55;;;0.15;;
21862;SDS011;11096;51.338;12.524;2022-09-01T12:18:24;0.80;;;0.38;;
21862;SDS011;11096;51.338;12.524;2022-09-01T12:20:52;0.50;;;0.20;;
21862;SDS011;11096;51.338;12.524;2022-09-01T12:25:53;0.20;;;0.10;;
21862;SDS011;11096;51.338;12.524;2022-09-01T12:28:22;0.73;;;0.30;;
21862;SDS011;11096;51.338;12.524;2022-09-01T12:30:49;1.23;;;0.30;;
21862;SDS011;11096;51.338;12.524;2022-09-01T12:33:16;1.42;;;0.20;;
21862;SDS011;11096;51.338;12.524;2022-09-01T12:35:43;0.50;;;0.30;;
21862;SDS011;11096;51.338;12.524;2022-09-01T12:40:48;0.88;;;0.20;;
21862;SDS011;11096;51.338;12.524;2022-09-01T12:43:28;0.63;;;0.30;;
21862;SDS011;11096;51.338;12.524;2022-09-01T12:45:59;2.00;;;0.43;;
21862;SDS011;11096;51.338;12.524;2022-09-01T12:48:29;0.90;;;0.20;;
21862;SDS011;11096;51.338;12.524;2022-09-01T12:53:53;0.17;;;0.17;;
21862;SDS011;11096;51.338;12.524;2022-09-01T12:56:31;1.30;;;0.20;;
21862;SDS011;11096;51.338;12.524;2022-09-01T12:59:03;2.25;;;0.57;;
21862;SDS011;11096;51.338;12.524;2022-09-01T13:01:36;0.52;;;0.28;;
21862;SDS011;11096;51.338;12.524;2022-09-01T13:04:10;0.55;;;0.20;;
21862;SDS011;11096;51.338;12.524;2022-09-01T13:06:45;1.90;;;0.30;;
21862;SDS011;11096;51.338;12.524;2022-09-01T13:09:10;0.57;;;0.20;;
21862;SDS011;11096;51.338;12.524;2022-09-01T13:11:36;1.65;;;0.32;;
21862;SDS011;11096;51.338;12.524;2022-09-01T13:14:02;0.68;;;0.25;;
21862;SDS011;11096;51.338;12.524;2022-09-01T13:16:27;0.68;;;0.20;;
21862;SDS011;11096;51.338;12.524;2022-09-01T13:18:53;1.55;;;0.20;;
21862;SDS011;11096;51.338;12.524;2022-09-01T13:21:18;0.30;;;0.20;;
21862;SDS011;11096;51.338;12.524;2022-09-01T13:23:43;0.77;;;0.40;;
21862;SDS011;11096;51.338;12.524;2022-09-01T13:26:09;0.77;;;0.20;;
21862;SDS011;11096;51.338;12.524;2022-09-01T13:28:35;1.70;;;0.32;;
21862;SDS011;11096;51.338;12.524;2022-09-01T13:31:01;1.85;;;0.20;;
21862;SDS011;11096;51.338;12.524;2022-09-01T13:33:29;0.47;;;0.20;;
21862;SDS011;11096;51.338;12.524;2022-09-01T13:35:56;0.95;;;0.20;;
21862;SDS011;11096;51.338;12.524;2022-09-01T13:38:22;0.40;;;0.22;;
21862;SDS011;11096;51.338;12.524;2022-09-01T13:40:48;0.30;;;0.20;;
21862;SDS011;11096;51.338;12.524;2022-09-01T13:43:16;0.90;;;0.28;;
21862;SDS011;11096;51.338;12.524;2022-09-01T13:45:44;3.13;;;0.52;;
21862;SDS011;11096;51.338;12.524;2022-09-01T13:48:09;0.35;;;0.30;;
21862;SDS011;11096;51.338;12.524;2022-09-01T13:50:36;0.57;;;0.30;;
21862;SDS011;11096;51.338;12.524;2022-09-01T13:53:05;0.32;;;0.30;;
21862;SDS011;11096;51.338;12.524;2022-09-01T13:55:32;0.55;;;0.20;;
21862;SDS011;11096;51.338;12.524;2022-09-01T13:58:00;0.60;;;0.25;;
21862;SDS011;11096;51.338;12.524;2022-09-01T14:00:30;1.60;;;0.20;;
21862;SDS011;11096;51.338;12.524;2022-09-01T14:02:59;0.30;;;0.30;;
21862;SDS011;11096;51.338;12.524;2022-09-01T14:05:29;0.70;;;0.38;;
21862;SDS011;11096;51.338;12.524;2022-09-01T14:07:59;1.10;;;0.40;;
21862;SDS011;11096;51.338;12.524;2022-09-01T14:10:25;2.40;;;0.40;;
21862;SDS011;11096;51.338;12.524;2022-09-01T14:12:52;0.95;;;0.28;;
21862;SDS011;11096;51.338;12.524;2022-09-01T14:15:18;0.50;;;0.20;;
21862;SDS011;11096;51.338;12.524;2022-09-01T14:17:45;0.38;;;0.20;;
21862;SDS011;11096;51.338;12.524;2022-09-01T14:20:13;0.30;;;0.22;;
21862;SDS011;11096;51.338;12.524;2022-09-01T14:22:42;1.55;;;0.22;;
21862;SDS011;11096;51.338;12.524;2022-09-01T14:25:09;0.60;;;0.30;;
21862;SDS011;11096;51.338;12.524;2022-09-01T14:27:35;0.52;;;0.40;;
21862;SDS011;11096;51.338;12.524;2022-09-01T14:30:02;1.65;;;0.30;;
21862;SDS011;11096;51.338;12.524;2022-09-01T14:32:32;0.68;;;0.20;;
21862;SDS011;11096;51.338;12.524;2022-09-01T14:34:58;0.30;;;0.22;;
21862;SDS011;11096;51.338;12.524;2022-09-01T14:37:24;0.47;;;0.28;;
21862;SDS011;11096;51.338;12.524;2022-09-01T14:39:53;0.40;;;0.30;;
21862;SDS011;11096;51.338;12.524;2022-09-01T14:42:20;0.77;;;0.30;;
21862;SDS011;11096;51.338;12.524;2022-09-01T14:44:49;1.65;;;0.40;;
21862;SDS011;11096;51.338;12.524;2022-09-01T14:47:15;1.90;;;0.32;;
21862;SDS011;11096;51.338;12.524;2022-09-01T14:49:41;0.50;;;0.20;;
21862;SDS011;11096;51.338;12.524;2022-09-01T14:52:07;1.23;;;0.55;;
21862;SDS011;11096;51.338;12.524;2022-09-01T14:54:33;1.75;;;0.60;;
21862;SDS011;11096;51.338;12.524;2022-09-01T14:56:59;1.73;;;0.40;;
21862;SDS011;11096;51.338;12.524;2022-09-01T14:59:25;0.93;;;0.35;;
21862;SDS011;11096;51.338;12.524;2022-09-01T15:01:50;1.17;;;0.38;;
21862;SDS011;11096;51.338;12.524;2022-09-01T15:04:16;0.57;;;0.40;;
21862;SDS011;11096;51.338;12.524;2022-09-01T15:06:41;4.15;;;0.30;;
21862;SDS011;11096;51.338;12.524;2022-09-01T15:09:07;2.05;;;0.40;;
21862;SDS011;11096;51.338;12.524;2022-09-01T15:11:32;0.57;;;0.40;;
21862;SDS011;11096;51.338;12.524;2022-09-01T15:13:58;0.20;;;0.20;;
21862;SDS011;11096;51.338;12.524;2022-09-01T15:16:24;0.65;;;0.40;;
21862;SDS011;11096;51.338;12.524;2022-09-01T15:18:52;1.30;;;0.40;;
21862;SDS011;11096;51.338;12.524;2022-09-01T15:21:23;0.38;;;0.30;;
21862;SDS011;11096;51.338;12.524;2022-09-01T15:23:52;1.17;;;0.47;;
21862;SDS011;11096;51.338;12.524;2022-09-01T15:26:18;0.98;;;0.30;;
21862;SDS011;11096;51.338;12.524;2022-09-01T15:28:44;1.27;;;0.35;;
21862;SDS011;11096;51.338;12.524;2022-09-01T15:31:11;1.10;;;0.38;;
21862;SDS011;11096;51.338;12.524;2022-09-01T15:33:38;0.70;;;0.40;;
21862;SDS011;11096;51.338;12.524;2022-09-01T15:36:04;0.77;;;0.30;;
21862;SDS011;11096;51.338;12.524;2022-09-01T15:38:30;0.63;;;0.25;;
21862;SDS011;11096;51.338;12.524;2022-09-01T15:40:55;2.38;;;0.50;;
21862;SDS011;11096;51.338;12.524;2022-09-01T15:43:21;0.70;;;0.40;;
21862;SDS011;11096;51.338;12.524;2022-09-01T15:45:47;0.22;;;0.20;;
21862;SDS011;11096;51.338;12.524;2022-09-01T15:48:12;1.48;;;0.30;;
21862;SDS011;11096;51.338;12.524;2022-09-01T15:50:38;0.45;;;0.30;;
21862;SDS011;11096;51.338;12.524;2022-09-01T15:53:04;1.05;;;0.40;;
21862;SDS011;11096;51.338;12.524;2022-09-01T15:55:45;2.13;;;0.55;;
21862;SDS011;11096;51.338;12.524;2022-09-01T15:58:13;1.08;;;0.50;;
21862;SDS011;11096;51.338;12.524;2022-09-01T16:00:41;0.73;;;0.45;;
21862;SDS011;11096;51.338;12.524;2022-09-01T16:03:07;0.65;;;0.30;;
21862;SDS011;11096;51.338;12.524;2022-09-01T16:05:34;4.03;;;0.60;;
21862;SDS011;11096;51.338;12.524;2022-09-01T16:08:01;2.05;;;0.30;;
21862;SDS011;11096;51.338;12.524;2022-09-01T16:10:29;0.40;;;0.40;;
21862;SDS011;11096;51.338;12.524;2022-09-01T16:12:54;2.95;;;0.50;;
21862;SDS011;11096;51.338;12.524;2022-09-01T16:15:21;0.45;;;0.43;;